Vremea mâine în Năvodari - Romania

Vrei sa afli care e starea vremii acum in Constanta - Romania? Dorim sa iti furnizam starea vremii pentru Constanta - Romania. Starea vremii Constanta - Romania pentru astazi.

Vremea mâine în Năvodari

Temperatura minimă:
9.6 °C

Temperatura maximă:
18.5 °C

Mâine va fi: Senin
Precipitații: 0 %
Umiditate: 61%
Viteza maximă vânt mâine:
19.8 km/h

Evoluția vremii in Năvodari pe ore mâine

Ora: 03:00
Temperatura: °C
Sansa de precipitatii: %
Ora Descriere Temp Se simte Precipitatii Umiditate Vant
00:0011.1°9.4°0%71%S 13.3 KM/H
01:0010°8.4°0%75%S 11.2 KM/H
02:00Senin10.2°8.7°0%71%S 10.8 KM/H
03:00Senin9.6°8.3°0%71%S 9.4 KM/H
04:00Senin9.9°8.9°0%68%SSW 7.9 KM/H
05:00Senin10°0%66%SSW 7.9 KM/H
06:00Senin10.7°9.8°0%62%S 7.9 KM/H
07:00Senin11°10.2°0%63%SSE 8.3 KM/H
08:00Senin12.5°11.7°0%58%SSE 9.7 KM/H
09:00Senin14.7°14°0%51%SSE 12.6 KM/H
10:00Senin16.4°16.4°0%46%SSE 14.8 KM/H
11:00Senin17.4°17.4°0%45%SE 17.6 KM/H
12:00Senin17.8°17.8°0%45%SE 18.7 KM/H
13:00Senin18.2°18.3°0%45%SE 19.1 KM/H
14:00Senin18.5°18.5°0%46%SE 19.4 KM/H
15:00Senin18.3°18.3°0%47%SE 19.8 KM/H
16:00Senin18°18°0%48%SE 19.4 KM/H
17:00Senin17.2°17.2°0%51%SE 19.4 KM/H
18:00Senin16.1°16.1°0%56%SE 19.1 KM/H
19:00Senin14.4°13.1°0%65%SE 17.3 KM/H
20:00Senin12.2°10.7°0%76%SE 14.4 KM/H
21:00Senin11.1°9.4°0%79%SE 14.4 KM/H
22:00Senin10.7°8.8°0%80%SE 14.4 KM/H
23:00Senin10.2°8.5°0%83%SSE 13 KM/H




tutorials